sensor_id;sensor_type;location;lat;lon;timestamp;temperature;humidity
3758;DHT22;1894;51.038;13.692;2023-05-06T00:00:18;15.00;99.90
3758;DHT22;1894;51.038;13.692;2023-05-06T00:02:46;14.90;99.90
3758;DHT22;1894;51.038;13.692;2023-05-06T00:05:13;14.80;99.90
3758;DHT22;1894;51.038;13.692;2023-05-06T00:07:44;14.80;99.90
3758;DHT22;1894;51.038;13.692;2023-05-06T00:10:14;14.90;99.90
3758;DHT22;1894;51.038;13.692;2023-05-06T00:12:41;15.00;99.90
3758;DHT22;1894;51.038;13.692;2023-05-06T00:15:09;14.90;99.90
3758;DHT22;1894;51.038;13.692;2023-05-06T00:17:37;14.80;99.90
3758;DHT22;1894;51.038;13.692;2023-05-06T00:20:05;14.90;99.90
3758;DHT22;1894;51.038;13.692;2023-05-06T00:22:32;14.90;99.90
3758;DHT22;1894;51.038;13.692;2023-05-06T00:25:00;14.90;99.90
3758;DHT22;1894;51.038;13.692;2023-05-06T00:27:27;14.90;99.90
3758;DHT22;1894;51.038;13.692;2023-05-06T00:29:56;14.80;99.90
3758;DHT22;1894;51.038;13.692;2023-05-06T00:32:23;14.80;99.90
3758;DHT22;1894;51.038;13.692;2023-05-06T00:34:50;14.80;99.90
3758;DHT22;1894;51.038;13.692;2023-05-06T00:37:17;14.90;99.90
3758;DHT22;1894;51.038;13.692;2023-05-06T00:39:44;14.80;99.90
3758;DHT22;1894;51.038;13.692;2023-05-06T00:42:12;14.90;99.90
3758;DHT22;1894;51.038;13.692;2023-05-06T00:44:39;14.90;99.90
3758;DHT22;1894;51.038;13.692;2023-05-06T00:47:06;14.80;99.90
3758;DHT22;1894;51.038;13.692;2023-05-06T00:49:34;14.80;99.90
3758;DHT22;1894;51.038;13.692;2023-05-06T00:52:01;14.80;99.90
3758;DHT22;1894;51.038;13.692;2023-05-06T00:54:29;14.70;99.90
3758;DHT22;1894;51.038;13.692;2023-05-06T00:56:56;14.20;99.90
3758;DHT22;1894;51.038;13.692;2023-05-06T00:59:24;14.20;99.90
3758;DHT22;1894;51.038;13.692;2023-05-06T01:01:51;14.30;99.90
3758;DHT22;1894;51.038;13.692;2023-05-06T01:04:21;14.40;99.90
3758;DHT22;1894;51.038;13.692;2023-05-06T01:12:36;14.50;99.90
3758;DHT22;1894;51.038;13.692;2023-05-06T01:15:19;14.30;99.90
3758;DHT22;1894;51.038;13.692;2023-05-06T01:17:49;14.30;99.90
3758;DHT22;1894;51.038;13.692;2023-05-06T01:20:20;14.20;99.90
3758;DHT22;1894;51.038;13.692;2023-05-06T01:22:48;14.30;99.90
3758;DHT22;1894;51.038;13.692;2023-05-06T01:25:22;14.30;99.90
3758;DHT22;1894;51.038;13.692;2023-05-06T01:27:49;14.20;99.90
3758;DHT22;1894;51.038;13.692;2023-05-06T01:30:17;14.20;99.90
3758;DHT22;1894;51.038;13.692;2023-05-06T01:32:49;14.20;99.90
3758;DHT22;1894;51.038;13.692;2023-05-06T01:38:21;14.20;99.90
3758;DHT22;1894;51.038;13.692;2023-05-06T01:40:51;14.10;99.90
3758;DHT22;1894;51.038;13.692;2023-05-06T01:43:23;14.10;99.90
3758;DHT22;1894;51.038;13.692;2023-05-06T01:45:55;14.20;99.90
3758;DHT22;1894;51.038;13.692;2023-05-06T01:48:25;14.30;99.90
3758;DHT22;1894;51.038;13.692;2023-05-06T01:50:54;14.30;99.90
3758;DHT22;1894;51.038;13.692;2023-05-06T01:53:21;14.30;99.90
3758;DHT22;1894;51.038;13.692;2023-05-06T01:55:48;14.30;99.90
3758;DHT22;1894;51.038;13.692;2023-05-06T01:58:16;14.20;99.90
3758;DHT22;1894;51.038;13.692;2023-05-06T02:00:43;14.30;99.90
3758;DHT22;1894;51.038;13.692;2023-05-06T02:03:10;14.30;99.90
3758;DHT22;1894;51.038;13.692;2023-05-06T02:05:38;14.20;99.90
3758;DHT22;1894;51.038;13.692;2023-05-06T02:08:06;14.30;99.90
3758;DHT22;1894;51.038;13.692;2023-05-06T02:10:33;14.20;99.90
3758;DHT22;1894;51.038;13.692;2023-05-06T02:13:04;14.10;99.90
3758;DHT22;1894;51.038;13.692;2023-05-06T02:15:31;14.00;99.90
3758;DHT22;1894;51.038;13.692;2023-05-06T02:17:59;13.90;99.90
3758;DHT22;1894;51.038;13.692;2023-05-06T02:20:27;13.90;99.90
3758;DHT22;1894;51.038;13.692;2023-05-06T02:22:54;13.80;99.90
3758;DHT22;1894;51.038;13.692;2023-05-06T02:25:22;13.80;99.90
3758;DHT22;1894;51.038;13.692;2023-05-06T02:27:49;13.80;99.90
3758;DHT22;1894;51.038;13.692;2023-05-06T02:30:16;14.00;99.90
3758;DHT22;1894;51.038;13.692;2023-05-06T02:32:43;14.00;99.90
3758;DHT22;1894;51.038;13.692;2023-05-06T02:35:10;13.90;99.90
3758;DHT22;1894;51.038;13.692;2023-05-06T02:37:37;14.00;99.90
3758;DHT22;1894;51.038;13.692;2023-05-06T02:40:05;13.80;99.90
3758;DHT22;1894;51.038;13.692;2023-05-06T02:42:33;13.80;99.90
3758;DHT22;1894;51.038;13.692;2023-05-06T02:45:01;13.90;99.90
3758;DHT22;1894;51.038;13.692;2023-05-06T02:47:31;14.00;99.90
3758;DHT22;1894;51.038;13.692;2023-05-06T02:49:58;14.00;99.90
3758;DHT22;1894;51.038;13.692;2023-05-06T02:52:25;13.90;99.90
3758;DHT22;1894;51.038;13.692;2023-05-06T02:54:52;13.90;99.90
3758;DHT22;1894;51.038;13.692;2023-05-06T02:57:19;13.90;99.90
3758;DHT22;1894;51.038;13.692;2023-05-06T02:59:47;13.90;99.90
3758;DHT22;1894;51.038;13.692;2023-05-06T03:02:14;13.90;99.90
3758;DHT22;1894;51.038;13.692;2023-05-06T03:04:41;13.90;99.90
3758;DHT22;1894;51.038;13.692;2023-05-06T03:07:08;13.90;99.90
3758;DHT22;1894;51.038;13.692;2023-05-06T03:09:36;13.90;99.90
3758;DHT22;1894;51.038;13.692;2023-05-06T03:12:03;14.00;99.90
3758;DHT22;1894;51.038;13.692;2023-05-06T03:14:32;14.00;99.90
3758;DHT22;1894;51.038;13.692;2023-05-06T03:16:59;14.10;99.90
3758;DHT22;1894;51.038;13.692;2023-05-06T03:19:26;14.00;99.90
3758;DHT22;1894;51.038;13.692;2023-05-06T03:21:53;14.00;99.90
3758;DHT22;1894;51.038;13.692;2023-05-06T03:24:21;14.00;99.90
3758;DHT22;1894;51.038;13.692;2023-05-06T03:26:48;14.10;99.90
3758;DHT22;1894;51.038;13.692;2023-05-06T03:29:15;14.00;99.90
3758;DHT22;1894;51.038;13.692;2023-05-06T03:31:44;14.00;99.90
3758;DHT22;1894;51.038;13.692;2023-05-06T03:34:12;14.00;99.90
3758;DHT22;1894;51.038;13.692;2023-05-06T03:36:39;14.10;99.90
3758;DHT22;1894;51.038;13.692;2023-05-06T03:39:07;14.10;99.90
3758;DHT22;1894;51.038;13.692;2023-05-06T03:41:36;14.20;99.90
3758;DHT22;1894;51.038;13.692;2023-05-06T03:44:03;14.10;99.90
3758;DHT22;1894;51.038;13.692;2023-05-06T03:46:31;14.10;99.90
3758;DHT22;1894;51.038;13.692;2023-05-06T03:49:00;14.20;99.90
3758;DHT22;1894;51.038;13.692;2023-05-06T03:51:29;14.30;99.90
3758;DHT22;1894;51.038;13.692;2023-05-06T03:53:56;14.20;99.90
3758;DHT22;1894;51.038;13.692;2023-05-06T03:56:24;14.20;99.90
3758;DHT22;1894;51.038;13.692;2023-05-06T03:58:53;14.30;99.90
3758;DHT22;1894;51.038;13.692;2023-05-06T04:01:23;14.30;99.90
3758;DHT22;1894;51.038;13.692;2023-05-06T04:03:50;14.40;99.90
3758;DHT22;1894;51.038;13.692;2023-05-06T04:06:22;14.40;99.90
3758;DHT22;1894;51.038;13.692;2023-05-06T04:08:49;14.40;99.90
3758;DHT22;1894;51.038;13.692;2023-05-06T04:11:17;14.30;99.90
3758;DHT22;1894;51.038;13.692;2023-05-06T04:13:45;14.30;99.90
3758;DHT22;1894;51.038;13.692;2023-05-06T04:16:16;14.30;99.90
3758;DHT22;1894;51.038;13.692;2023-05-06T04:18:43;14.30;99.90
3758;DHT22;1894;51.038;13.692;2023-05-06T04:21:14;14.30;99.90
3758;DHT22;1894;51.038;13.692;2023-05-06T04:23:46;14.40;99.90
3758;DHT22;1894;51.038;13.692;2023-05-06T04:26:18;14.40;99.90
3758;DHT22;1894;51.038;13.692;2023-05-06T04:28:45;14.40;99.90
3758;DHT22;1894;51.038;13.692;2023-05-06T04:31:13;14.50;99.90
3758;DHT22;1894;51.038;13.692;2023-05-06T04:33:44;14.50;99.90
3758;DHT22;1894;51.038;13.692;2023-05-06T04:36:17;14.60;99.90
3758;DHT22;1894;51.038;13.692;2023-05-06T04:38:59;14.60;99.90
3758;DHT22;1894;51.038;13.692;2023-05-06T04:41:26;14.60;99.90
3758;DHT22;1894;51.038;13.692;2023-05-06T04:43:57;14.50;99.90
3758;DHT22;1894;51.038;13.692;2023-05-06T04:46:25;14.60;99.90
3758;DHT22;1894;51.038;13.692;2023-05-06T04:48:53;14.60;99.90
3758;DHT22;1894;51.038;13.692;2023-05-06T04:51:22;14.70;99.90
3758;DHT22;1894;51.038;13.692;2023-05-06T04:53:49;14.70;99.90
3758;DHT22;1894;51.038;13.692;2023-05-06T04:56:17;14.80;99.90
3758;DHT22;1894;51.038;13.692;2023-05-06T04:58:48;14.90;99.90
3758;DHT22;1894;51.038;13.692;2023-05-06T05:01:15;15.00;99.90
3758;DHT22;1894;51.038;13.692;2023-05-06T05:03:43;14.60;99.90
3758;DHT22;1894;51.038;13.692;2023-05-06T05:06:11;14.70;99.90
3758;DHT22;1894;51.038;13.692;2023-05-06T05:08:39;14.60;99.90
3758;DHT22;1894;51.038;13.692;2023-05-06T05:11:07;14.60;99.90
3758;DHT22;1894;51.038;13.692;2023-05-06T05:13:35;14.70;99.90
3758;DHT22;1894;51.038;13.692;2023-05-06T05:16:05;14.90;99.90
3758;DHT22;1894;51.038;13.692;2023-05-06T05:18:35;14.70;99.90
3758;DHT22;1894;51.038;13.692;2023-05-06T05:21:09;14.70;99.90
3758;DHT22;1894;51.038;13.692;2023-05-06T05:23:36;14.90;99.90
3758;DHT22;1894;51.038;13.692;2023-05-06T05:26:04;15.00;99.90
3758;DHT22;1894;51.038;13.692;2023-05-06T05:28:31;14.90;99.90
3758;DHT22;1894;51.038;13.692;2023-05-06T05:31:04;14.80;99.90
3758;DHT22;1894;51.038;13.692;2023-05-06T05:33:34;14.90;99.90
3758;DHT22;1894;51.038;13.692;2023-05-06T05:36:04;14.80;99.90
3758;DHT22;1894;51.038;13.692;2023-05-06T05:38:32;14.90;99.90
3758;DHT22;1894;51.038;13.692;2023-05-06T05:40:59;14.80;99.90
3758;DHT22;1894;51.038;13.692;2023-05-06T05:43:27;14.80;99.90
3758;DHT22;1894;51.038;13.692;2023-05-06T05:45:55;14.90;99.90
3758;DHT22;1894;51.038;13.692;2023-05-06T05:48:22;15.00;99.90
3758;DHT22;1894;51.038;13.692;2023-05-06T05:50:50;14.90;99.90
3758;DHT22;1894;51.038;13.692;2023-05-06T05:53:18;14.70;99.90
3758;DHT22;1894;51.038;13.692;2023-05-06T05:55:45;14.60;99.90
3758;DHT22;1894;51.038;13.692;2023-05-06T05:58:13;14.60;99.90
3758;DHT22;1894;51.038;13.692;2023-05-06T06:00:42;14.50;99.90
3758;DHT22;1894;51.038;13.692;2023-05-06T06:03:13;14.70;99.90
3758;DHT22;1894;51.038;13.692;2023-05-06T06:05:40;14.80;99.90
3758;DHT22;1894;51.038;13.692;2023-05-06T06:08:08;14.90;99.90
3758;DHT22;1894;51.038;13.692;2023-05-06T06:10:35;15.00;99.90
3758;DHT22;1894;51.038;13.692;2023-05-06T06:13:09;15.00;99.90
3758;DHT22;1894;51.038;13.692;2023-05-06T06:15:36;15.00;99.90
3758;DHT22;1894;51.038;13.692;2023-05-06T06:18:03;15.00;99.90
3758;DHT22;1894;51.038;13.692;2023-05-06T06:20:35;15.10;99.90
3758;DHT22;1894;51.038;13.692;2023-05-06T06:23:02;14.90;99.90
3758;DHT22;1894;51.038;13.692;2023-05-06T06:25:29;15.00;99.90
3758;DHT22;1894;51.038;13.692;2023-05-06T06:27:57;14.80;99.90
3758;DHT22;1894;51.038;13.692;2023-05-06T06:30:24;14.90;99.90
3758;DHT22;1894;51.038;13.692;2023-05-06T06:32:52;15.00;99.90
3758;DHT22;1894;51.038;13.692;2023-05-06T06:35:20;15.20;99.90
3758;DHT22;1894;51.038;13.692;2023-05-06T06:37:49;15.30;99.90
3758;DHT22;1894;51.038;13.692;2023-05-06T06:40:16;15.30;99.90
3758;DHT22;1894;51.038;13.692;2023-05-06T06:42:43;15.30;99.90
3758;DHT22;1894;51.038;13.692;2023-05-06T06:45:30;15.50;99.90
3758;DHT22;1894;51.038;13.692;2023-05-06T06:47:58;15.60;99.90
3758;DHT22;1894;51.038;13.692;2023-05-06T06:50:25;15.70;99.90
3758;DHT22;1894;51.038;13.692;2023-05-06T06:52:52;15.80;99.90
3758;DHT22;1894;51.038;13.692;2023-05-06T06:55:19;15.80;99.90
3758;DHT22;1894;51.038;13.692;2023-05-06T06:57:47;15.90;99.90
3758;DHT22;1894;51.038;13.692;2023-05-06T07:00:15;16.10;99.90
3758;DHT22;1894;51.038;13.692;2023-05-06T07:02:42;16.10;99.90
3758;DHT22;1894;51.038;13.692;2023-05-06T07:05:10;16.30;99.90
3758;DHT22;1894;51.038;13.692;2023-05-06T07:07:37;16.00;99.90
3758;DHT22;1894;51.038;13.692;2023-05-06T07:10:05;15.90;99.90
3758;DHT22;1894;51.038;13.692;2023-05-06T07:12:32;15.70;99.90
3758;DHT22;1894;51.038;13.692;2023-05-06T07:15:00;15.90;99.90
3758;DHT22;1894;51.038;13.692;2023-05-06T07:17:27;15.90;99.90
3758;DHT22;1894;51.038;13.692;2023-05-06T07:19:54;16.20;99.90
3758;DHT22;1894;51.038;13.692;2023-05-06T07:22:21;15.90;99.90
3758;DHT22;1894;51.038;13.692;2023-05-06T07:24:48;16.10;99.90
3758;DHT22;1894;51.038;13.692;2023-05-06T07:27:15;15.80;99.90
3758;DHT22;1894;51.038;13.692;2023-05-06T07:29:42;15.80;99.90
3758;DHT22;1894;51.038;13.692;2023-05-06T07:32:09;15.90;99.90
3758;DHT22;1894;51.038;13.692;2023-05-06T07:34:37;16.20;99.90
3758;DHT22;1894;51.038;13.692;2023-05-06T07:37:04;16.00;99.90
3758;DHT22;1894;51.038;13.692;2023-05-06T07:39:33;16.00;99.90
3758;DHT22;1894;51.038;13.692;2023-05-06T07:42:01;16.40;99.90
3758;DHT22;1894;51.038;13.692;2023-05-06T07:44:28;16.00;99.90
3758;DHT22;1894;51.038;13.692;2023-05-06T07:46:55;16.30;99.90
3758;DHT22;1894;51.038;13.692;2023-05-06T07:49:22;16.50;99.90
3758;DHT22;1894;51.038;13.692;2023-05-06T07:51:49;16.50;99.90
3758;DHT22;1894;51.038;13.692;2023-05-06T07:54:17;16.40;99.90
3758;DHT22;1894;51.038;13.692;2023-05-06T07:56:44;16.40;99.90
3758;DHT22;1894;51.038;13.692;2023-05-06T07:59:12;16.40;99.90
3758;DHT22;1894;51.038;13.692;2023-05-06T08:01:39;16.90;99.90
3758;DHT22;1894;51.038;13.692;2023-05-06T08:04:06;16.60;99.90
3758;DHT22;1894;51.038;13.692;2023-05-06T08:06:33;16.30;99.90
3758;DHT22;1894;51.038;13.692;2023-05-06T08:09:01;15.90;99.90
3758;DHT22;1894;51.038;13.692;2023-05-06T08:11:28;15.80;99.90
3758;DHT22;1894;51.038;13.692;2023-05-06T08:13:56;16.30;99.90
3758;DHT22;1894;51.038;13.692;2023-05-06T08:16:23;16.50;99.90
3758;DHT22;1894;51.038;13.692;2023-05-06T08:18:51;16.60;99.90
3758;DHT22;1894;51.038;13.692;2023-05-06T08:21:18;16.50;99.90
3758;DHT22;1894;51.038;13.692;2023-05-06T08:23:45;16.60;99.90
3758;DHT22;1894;51.038;13.692;2023-05-06T08:26:13;16.50;99.90
3758;DHT22;1894;51.038;13.692;2023-05-06T08:28:40;16.20;99.90
3758;DHT22;1894;51.038;13.692;2023-05-06T08:31:08;15.90;99.90
3758;DHT22;1894;51.038;13.692;2023-05-06T08:33:35;16.10;99.90
3758;DHT22;1894;51.038;13.692;2023-05-06T08:36:05;16.30;99.90
3758;DHT22;1894;51.038;13.692;2023-05-06T08:38:32;16.20;99.90
3758;DHT22;1894;51.038;13.692;2023-05-06T08:41:01;16.10;99.90
3758;DHT22;1894;51.038;13.692;2023-05-06T08:43:40;16.30;99.90
3758;DHT22;1894;51.038;13.692;2023-05-06T08:46:08;15.80;99.90
3758;DHT22;1894;51.038;13.692;2023-05-06T08:48:35;15.90;99.90
3758;DHT22;1894;51.038;13.692;2023-05-06T08:51:03;15.70;99.90
3758;DHT22;1894;51.038;13.692;2023-05-06T08:53:32;15.70;99.90
3758;DHT22;1894;51.038;13.692;2023-05-06T08:56:06;15.80;99.90
3758;DHT22;1894;51.038;13.692;2023-05-06T08:58:38;15.70;99.90
3758;DHT22;1894;51.038;13.692;2023-05-06T09:01:07;15.70;99.90
3758;DHT22;1894;51.038;13.692;2023-05-06T09:03:35;15.40;99.90
3758;DHT22;1894;51.038;13.692;2023-05-06T09:06:02;15.30;99.90
3758;DHT22;1894;51.038;13.692;2023-05-06T09:08:30;15.50;99.90
3758;DHT22;1894;51.038;13.692;2023-05-06T09:10:57;15.50;99.90
3758;DHT22;1894;51.038;13.692;2023-05-06T09:13:25;16.00;99.90
3758;DHT22;1894;51.038;13.692;2023-05-06T09:15:53;16.20;99.90
3758;DHT22;1894;51.038;13.692;2023-05-06T09:18:21;16.30;99.90
3758;DHT22;1894;51.038;13.692;2023-05-06T09:20:49;16.00;99.90
3758;DHT22;1894;51.038;13.692;2023-05-06T09:23:17;15.80;99.90
3758;DHT22;1894;51.038;13.692;2023-05-06T09:25:46;15.60;99.90
3758;DHT22;1894;51.038;13.692;2023-05-06T09:28:17;15.80;99.90
3758;DHT22;1894;51.038;13.692;2023-05-06T09:30:44;16.10;99.90
3758;DHT22;1894;51.038;13.692;2023-05-06T09:33:13;16.30;99.90
3758;DHT22;1894;51.038;13.692;2023-05-06T09:35:42;16.70;99.90
3758;DHT22;1894;51.038;13.692;2023-05-06T09:38:10;16.80;99.90
3758;DHT22;1894;51.038;13.692;2023-05-06T09:40:38;16.70;99.90
3758;DHT22;1894;51.038;13.692;2023-05-06T09:43:05;16.70;99.90
3758;DHT22;1894;51.038;13.692;2023-05-06T09:45:34;16.90;99.90
3758;DHT22;1894;51.038;13.692;2023-05-06T09:48:02;16.90;99.90
3758;DHT22;1894;51.038;13.692;2023-05-06T09:50:29;17.20;99.90
3758;DHT22;1894;51.038;13.692;2023-05-06T09:52:59;17.30;99.90
3758;DHT22;1894;51.038;13.692;2023-05-06T09:55:29;17.40;99.90
3758;DHT22;1894;51.038;13.692;2023-05-06T09:57:57;17.20;99.90
3758;DHT22;1894;51.038;13.692;2023-05-06T10:00:25;16.90;99.90
3758;DHT22;1894;51.038;13.692;2023-05-06T10:02:54;16.90;99.90
3758;DHT22;1894;51.038;13.692;2023-05-06T10:05:24;17.10;99.90
3758;DHT22;1894;51.038;13.692;2023-05-06T10:07:52;16.80;99.90
3758;DHT22;1894;51.038;13.692;2023-05-06T10:10:21;16.50;99.90
3758;DHT22;1894;51.038;13.692;2023-05-06T10:12:51;16.00;99.90
3758;DHT22;1894;51.038;13.692;2023-05-06T10:15:19;16.30;99.90
3758;DHT22;1894;51.038;13.692;2023-05-06T10:17:47;16.10;99.90
3758;DHT22;1894;51.038;13.692;2023-05-06T10:20:16;16.40;99.90
3758;DHT22;1894;51.038;13.692;2023-05-06T10:25:38;16.90;99.90
3758;DHT22;1894;51.038;13.692;2023-05-06T10:28:08;16.80;99.90
3758;DHT22;1894;51.038;13.692;2023-05-06T10:30:55;17.00;99.90
3758;DHT22;1894;51.038;13.692;2023-05-06T10:33:25;17.00;99.90
3758;DHT22;1894;51.038;13.692;2023-05-06T10:36:16;17.50;99.90
3758;DHT22;1894;51.038;13.692;2023-05-06T10:38:49;17.60;99.90
3758;DHT22;1894;51.038;13.692;2023-05-06T10:41:21;17.30;99.90
3758;DHT22;1894;51.038;13.692;2023-05-06T10:43:49;17.30;99.90
3758;DHT22;1894;51.038;13.692;2023-05-06T10:46:24;17.50;99.90
3758;DHT22;1894;51.038;13.692;2023-05-06T10:51:33;17.60;99.90
3758;DHT22;1894;51.038;13.692;2023-05-06T10:59:21;16.90;99.90
3758;DHT22;1894;51.038;13.692;2023-05-06T11:01:55;16.60;99.90
3758;DHT22;1894;51.038;13.692;2023-05-06T11:04:33;16.40;99.90
3758;DHT22;1894;51.038;13.692;2023-05-06T11:07:12;16.90;99.90
3758;DHT22;1894;51.038;13.692;2023-05-06T11:09:58;17.30;99.90
3758;DHT22;1894;51.038;13.692;2023-05-06T11:12:50;17.10;99.90
3758;DHT22;1894;51.038;13.692;2023-05-06T11:15:36;17.00;99.90
3758;DHT22;1894;51.038;13.692;2023-05-06T11:26:13;17.20;99.90
3758;DHT22;1894;51.038;13.692;2023-05-06T11:28:48;17.40;99.90
3758;DHT22;1894;51.038;13.692;2023-05-06T11:31:18;16.90;99.90
3758;DHT22;1894;51.038;13.692;2023-05-06T11:33:48;17.10;99.90
3758;DHT22;1894;51.038;13.692;2023-05-06T11:36:17;17.80;99.90
3758;DHT22;1894;51.038;13.692;2023-05-06T11:38:47;18.30;99.90
3758;DHT22;1894;51.038;13.692;2023-05-06T11:41:16;17.90;99.90
3758;DHT22;1894;51.038;13.692;2023-05-06T11:43:47;17.80;99.90
3758;DHT22;1894;51.038;13.692;2023-05-06T11:46:18;18.30;99.90
3758;DHT22;1894;51.038;13.692;2023-05-06T11:48:47;18.80;99.90
3758;DHT22;1894;51.038;13.692;2023-05-06T11:51:20;19.30;99.90
3758;DHT22;1894;51.038;13.692;2023-05-06T11:53:47;19.60;99.90
3758;DHT22;1894;51.038;13.692;2023-05-06T11:56:14;19.80;99.90
3758;DHT22;1894;51.038;13.692;2023-05-06T11:58:42;19.50;99.90
3758;DHT22;1894;51.038;13.692;2023-05-06T12:01:09;20.00;99.90
3758;DHT22;1894;51.038;13.692;2023-05-06T12:03:36;19.60;99.90
3758;DHT22;1894;51.038;13.692;2023-05-06T12:06:04;19.20;99.90
3758;DHT22;1894;51.038;13.692;2023-05-06T12:08:32;19.30;99.90
3758;DHT22;1894;51.038;13.692;2023-05-06T12:11:03;19.00;99.90
3758;DHT22;1894;51.038;13.692;2023-05-06T12:13:32;19.70;99.90
3758;DHT22;1894;51.038;13.692;2023-05-06T12:16:03;20.40;99.90
3758;DHT22;1894;51.038;13.692;2023-05-06T12:18:34;20.90;99.90
3758;DHT22;1894;51.038;13.692;2023-05-06T12:21:02;20.70;99.90
3758;DHT22;1894;51.038;13.692;2023-05-06T12:23:29;20.40;99.90
3758;DHT22;1894;51.038;13.692;2023-05-06T12:26:02;20.40;99.90
3758;DHT22;1894;51.038;13.692;2023-05-06T12:28:32;20.30;99.90
3758;DHT22;1894;51.038;13.692;2023-05-06T12:31:22;19.90;99.90
3758;DHT22;1894;51.038;13.692;2023-05-06T12:33:50;20.40;99.90
3758;DHT22;1894;51.038;13.692;2023-05-06T12:36:18;21.70;99.90
3758;DHT22;1894;51.038;13.692;2023-05-06T12:38:53;22.30;99.60
3758;DHT22;1894;51.038;13.692;2023-05-06T12:41:24;22.10;99.50
3758;DHT22;1894;51.038;13.692;2023-05-06T12:44:03;21.50;99.90
3758;DHT22;1894;51.038;13.692;2023-05-06T12:47:25;21.30;99.90
3758;DHT22;1894;51.038;13.692;2023-05-06T12:49:54;20.80;99.90
3758;DHT22;1894;51.038;13.692;2023-05-06T12:52:27;20.50;99.90
3758;DHT22;1894;51.038;13.692;2023-05-06T12:54:56;20.50;99.90
3758;DHT22;1894;51.038;13.692;2023-05-06T12:57:26;21.70;99.90
3758;DHT22;1894;51.038;13.692;2023-05-06T12:59:54;22.40;98.40
3758;DHT22;1894;51.038;13.692;2023-05-06T13:02:22;22.40;98.10
3758;DHT22;1894;51.038;13.692;2023-05-06T13:04:49;22.00;97.70
3758;DHT22;1894;51.038;13.692;2023-05-06T13:07:16;21.80;97.70
3758;DHT22;1894;51.038;13.692;2023-05-06T13:09:43;21.80;97.90
3758;DHT22;1894;51.038;13.692;2023-05-06T13:12:11;21.80;97.70
3758;DHT22;1894;51.038;13.692;2023-05-06T13:14:38;22.20;97.50
3758;DHT22;1894;51.038;13.692;2023-05-06T13:17:06;23.00;95.90
3758;DHT22;1894;51.038;13.692;2023-05-06T13:19:34;23.20;95.00
3758;DHT22;1894;51.038;13.692;2023-05-06T13:22:01;22.80;95.00
3758;DHT22;1894;51.038;13.692;2023-05-06T13:24:29;22.00;96.50
3758;DHT22;1894;51.038;13.692;2023-05-06T13:26:57;21.50;97.30
3758;DHT22;1894;51.038;13.692;2023-05-06T13:29:27;20.90;97.30
3758;DHT22;1894;51.038;13.692;2023-05-06T13:31:55;20.20;99.00
3758;DHT22;1894;51.038;13.692;2023-05-06T13:34:22;19.50;99.90
3758;DHT22;1894;51.038;13.692;2023-05-06T13:36:50;19.30;99.90
3758;DHT22;1894;51.038;13.692;2023-05-06T13:39:17;19.10;99.90
3758;DHT22;1894;51.038;13.692;2023-05-06T13:41:46;19.00;99.90
3758;DHT22;1894;51.038;13.692;2023-05-06T13:44:13;19.20;99.90
3758;DHT22;1894;51.038;13.692;2023-05-06T13:46:44;20.00;99.90
3758;DHT22;1894;51.038;13.692;2023-05-06T13:49:16;22.20;97.70
3758;DHT22;1894;51.038;13.692;2023-05-06T13:51:44;23.10;95.70
3758;DHT22;1894;51.038;13.692;2023-05-06T13:54:11;24.20;93.20
3758;DHT22;1894;51.038;13.692;2023-05-06T13:56:38;26.60;90.10
3758;DHT22;1894;51.038;13.692;2023-05-06T13:59:05;26.80;83.10
3758;DHT22;1894;51.038;13.692;2023-05-06T14:01:34;25.30;85.40
3758;DHT22;1894;51.038;13.692;2023-05-06T14:04:01;24.30;88.50
3758;DHT22;1894;51.038;13.692;2023-05-06T14:06:29;23.20;90.60
3758;DHT22;1894;51.038;13.692;2023-05-06T14:08:56;22.00;92.70
3758;DHT22;1894;51.038;13.692;2023-05-06T14:11:24;21.00;94.60
3758;DHT22;1894;51.038;13.692;2023-05-06T14:13:51;20.20;97.40
3758;DHT22;1894;51.038;13.692;2023-05-06T14:16:21;19.70;99.70
3758;DHT22;1894;51.038;13.692;2023-05-06T14:18:49;19.20;99.90
3758;DHT22;1894;51.038;13.692;2023-05-06T14:21:17;18.90;99.90
3758;DHT22;1894;51.038;13.692;2023-05-06T14:23:44;18.90;99.90
3758;DHT22;1894;51.038;13.692;2023-05-06T14:26:11;19.10;99.90
3758;DHT22;1894;51.038;13.692;2023-05-06T14:28:40;19.20;99.90
3758;DHT22;1894;51.038;13.692;2023-05-06T14:31:07;19.10;99.90
3758;DHT22;1894;51.038;13.692;2023-05-06T14:33:36;18.90;99.90
3758;DHT22;1894;51.038;13.692;2023-05-06T14:36:04;18.70;99.90
3758;DHT22;1894;51.038;13.692;2023-05-06T14:38:34;18.70;99.90
3758;DHT22;1894;51.038;13.692;2023-05-06T14:41:01;18.70;99.90
3758;DHT22;1894;51.038;13.692;2023-05-06T14:43:29;19.00;99.90
3758;DHT22;1894;51.038;13.692;2023-05-06T14:45:56;19.90;99.90
3758;DHT22;1894;51.038;13.692;2023-05-06T14:48:23;20.50;99.70
3758;DHT22;1894;51.038;13.692;2023-05-06T14:50:51;20.80;99.30
3758;DHT22;1894;51.038;13.692;2023-05-06T14:53:18;21.00;98.60
3758;DHT22;1894;51.038;13.692;2023-05-06T14:55:45;21.00;98.20
3758;DHT22;1894;51.038;13.692;2023-05-06T14:58:14;21.70;96.90
3758;DHT22;1894;51.038;13.692;2023-05-06T15:00:41;22.00;95.40
3758;DHT22;1894;51.038;13.692;2023-05-06T15:03:09;21.50;95.70
3758;DHT22;1894;51.038;13.692;2023-05-06T15:05:36;20.70;96.40
3758;DHT22;1894;51.038;13.692;2023-05-06T15:08:05;19.90;97.80
3758;DHT22;1894;51.038;13.692;2023-05-06T15:10:32;19.30;99.90
3758;DHT22;1894;51.038;13.692;2023-05-06T15:12:59;18.80;99.90
3758;DHT22;1894;51.038;13.692;2023-05-06T15:15:26;18.70;99.90
3758;DHT22;1894;51.038;13.692;2023-05-06T15:17:53;18.30;99.90
3758;DHT22;1894;51.038;13.692;2023-05-06T15:20:21;18.20;99.90
3758;DHT22;1894;51.038;13.692;2023-05-06T15:22:48;17.90;99.90
3758;DHT22;1894;51.038;13.692;2023-05-06T15:25:15;18.00;99.90
3758;DHT22;1894;51.038;13.692;2023-05-06T15:28:00;18.10;99.90
3758;DHT22;1894;51.038;13.692;2023-05-06T15:30:27;18.30;99.90
3758;DHT22;1894;51.038;13.692;2023-05-06T15:32:54;18.40;99.90
3758;DHT22;1894;51.038;13.692;2023-05-06T15:35:21;18.60;99.90
3758;DHT22;1894;51.038;13.692;2023-05-06T15:37:53;18.70;99.90
3758;DHT22;1894;51.038;13.692;2023-05-06T15:40:24;18.40;99.90
3758;DHT22;1894;51.038;13.692;2023-05-06T15:42:52;17.90;99.90
3758;DHT22;1894;51.038;13.692;2023-05-06T15:45:20;17.80;99.90
3758;DHT22;1894;51.038;13.692;2023-05-06T15:47:47;17.70;99.90
3758;DHT22;1894;51.038;13.692;2023-05-06T15:50:15;18.00;99.90
3758;DHT22;1894;51.038;13.692;2023-05-06T15:52:58;19.70;99.90
3758;DHT22;1894;51.038;13.692;2023-05-06T15:55:27;20.80;98.10
3758;DHT22;1894;51.038;13.692;2023-05-06T15:57:54;21.00;96.60
3758;DHT22;1894;51.038;13.692;2023-05-06T16:00:24;20.60;96.70
3758;DHT22;1894;51.038;13.692;2023-05-06T16:02:53;19.90;98.30
3758;DHT22;1894;51.038;13.692;2023-05-06T16:05:21;19.10;99.50
3758;DHT22;1894;51.038;13.692;2023-05-06T16:07:48;18.70;99.90
3758;DHT22;1894;51.038;13.692;2023-05-06T16:10:15;18.40;99.90
3758;DHT22;1894;51.038;13.692;2023-05-06T16:12:42;18.10;99.90
3758;DHT22;1894;51.038;13.692;2023-05-06T16:15:10;18.20;99.90
3758;DHT22;1894;51.038;13.692;2023-05-06T16:17:37;18.50;99.90
3758;DHT22;1894;51.038;13.692;2023-05-06T16:20:05;18.80;99.90
3758;DHT22;1894;51.038;13.692;2023-05-06T16:22:38;19.00;99.90